sensor_id;sensor_type;location;lat;lon;timestamp;pressure;altitude;pressure_sealevel;temperature;humidity
79453;BME280;68899;52.116;5.404;2023-09-19T00:00:47;100750.75;;;20.78;64.10
79453;BME280;68899;52.116;5.404;2023-09-19T00:03:15;100754.28;;;20.78;64.06
79453;BME280;68899;52.116;5.404;2023-09-19T00:05:42;100752.59;;;20.77;63.94
79453;BME280;68899;52.116;5.404;2023-09-19T00:08:10;100764.31;;;20.76;64.20
79453;BME280;68899;52.116;5.404;2023-09-19T00:10:40;100770.47;;;20.77;64.20
79453;BME280;68899;52.116;5.404;2023-09-19T00:13:08;100764.44;;;20.75;64.24
79453;BME280;68899;52.116;5.404;2023-09-19T00:15:44;100773.28;;;20.75;63.96
79453;BME280;68899;52.116;5.404;2023-09-19T00:18:20;100773.47;;;20.74;64.28
79453;BME280;68899;52.116;5.404;2023-09-19T00:20:57;100770.94;;;20.72;64.31
79453;BME280;68899;52.116;5.404;2023-09-19T00:23:24;100770.94;;;20.72;64.37
79453;BME280;68899;52.116;5.404;2023-09-19T00:25:51;100769.13;;;20.73;64.16
79453;BME280;68899;52.116;5.404;2023-09-19T00:28:18;100771.78;;;20.73;64.46
79453;BME280;68899;52.116;5.404;2023-09-19T00:30:46;100770.94;;;20.72;63.87
79453;BME280;68899;52.116;5.404;2023-09-19T00:33:18;100778.97;;;20.72;64.29
79453;BME280;68899;52.116;5.404;2023-09-19T00:35:49;100784.31;;;20.72;64.23
79453;BME280;68899;52.116;5.404;2023-09-19T00:38:16;100786.16;;;20.72;64.25
79453;BME280;68899;52.116;5.404;2023-09-19T00:40:45;100782.81;;;20.70;64.19
79453;BME280;68899;52.116;5.404;2023-09-19T00:43:12;100784.47;;;20.71;64.22
79453;BME280;68899;52.116;5.404;2023-09-19T00:45:43;100779.31;;;20.69;64.24
79453;BME280;68899;52.116;5.404;2023-09-19T00:48:10;100779.31;;;20.69;63.96
79453;BME280;68899;52.116;5.404;2023-09-19T00:50:38;100787.50;;;20.68;64.32
79453;BME280;68899;52.116;5.404;2023-09-19T00:53:08;100787.50;;;20.68;63.99
79453;BME280;68899;52.116;5.404;2023-09-19T00:55:36;100791.00;;;20.68;63.82
79453;BME280;68899;52.116;5.404;2023-09-19T00:58:10;100792.84;;;20.68;63.92
79453;BME280;68899;52.116;5.404;2023-09-19T01:00:37;100794.66;;;20.67;64.04
79453;BME280;68899;52.116;5.404;2023-09-19T01:03:05;100799.16;;;20.67;64.20
79453;BME280;68899;52.116;5.404;2023-09-19T01:05:33;100799.16;;;20.67;64.21
79453;BME280;68899;52.116;5.404;2023-09-19T01:08:00;100800.16;;;20.66;63.94
79453;BME280;68899;52.116;5.404;2023-09-19T01:10:27;100800.31;;;20.64;63.90
79453;BME280;68899;52.116;5.404;2023-09-19T01:13:21;100804.66;;;20.65;64.01
79453;BME280;68899;52.116;5.404;2023-09-19T01:16:17;100806.66;;;20.63;64.01
79453;BME280;68899;52.116;5.404;2023-09-19T01:18:52;100802.00;;;20.65;64.06
79453;BME280;68899;52.116;5.404;2023-09-19T01:21:34;100806.66;;;20.63;64.16
79453;BME280;68899;52.116;5.404;2023-09-19T01:30:14;100809.50;;;20.62;64.00
79453;BME280;68899;52.116;5.404;2023-09-19T01:32:43;100809.50;;;20.62;63.91
79453;BME280;68899;52.116;5.404;2023-09-19T01:35:12;100799.81;;;20.60;64.29
79453;BME280;68899;52.116;5.404;2023-09-19T01:37:39;100807.00;;;20.60;63.97
79453;BME280;68899;52.116;5.404;2023-09-19T01:40:10;100800.81;;;20.59;64.32
79453;BME280;68899;52.116;5.404;2023-09-19T01:42:56;100803.50;;;20.59;63.76
79453;BME280;68899;52.116;5.404;2023-09-19T01:51:01;100815.16;;;20.58;64.05
79453;BME280;68899;52.116;5.404;2023-09-19T01:54:07;100815.16;;;20.58;64.14
79453;BME280;68899;52.116;5.404;2023-09-19T01:56:45;100821.50;;;20.57;63.75
79453;BME280;68899;52.116;5.404;2023-09-19T01:59:21;100813.47;;;20.57;64.17
79453;BME280;68899;52.116;5.404;2023-09-19T02:01:52;100809.13;;;20.56;64.03
79453;BME280;68899;52.116;5.404;2023-09-19T02:04:19;100814.50;;;20.56;63.75
79453;BME280;68899;52.116;5.404;2023-09-19T02:06:45;100815.50;;;20.55;64.13
79453;BME280;68899;52.116;5.404;2023-09-19T02:09:14;100819.84;;;20.56;63.77
79453;BME280;68899;52.116;5.404;2023-09-19T02:11:41;100817.16;;;20.56;63.83
79453;BME280;68899;52.116;5.404;2023-09-19T02:14:09;100818.16;;;20.55;64.11
79453;BME280;68899;52.116;5.404;2023-09-19T02:16:35;100808.47;;;20.54;64.03
79453;BME280;68899;52.116;5.404;2023-09-19T02:19:02;100811.97;;;20.55;64.41
79453;BME280;68899;52.116;5.404;2023-09-19T02:21:32;100804.97;;;20.54;63.71
79453;BME280;68899;52.116;5.404;2023-09-19T02:23:58;100806.81;;;20.53;64.18
79453;BME280;68899;52.116;5.404;2023-09-19T02:26:25;100807.63;;;20.54;63.53
79453;BME280;68899;52.116;5.404;2023-09-19T02:28:54;100816.66;;;20.53;63.97
79453;BME280;68899;52.116;5.404;2023-09-19T02:31:20;100813.97;;;20.53;63.84
79453;BME280;68899;52.116;5.404;2023-09-19T02:33:47;100818.50;;;20.52;63.79
79453;BME280;68899;52.116;5.404;2023-09-19T02:36:13;100821.16;;;20.52;64.27
79453;BME280;68899;52.116;5.404;2023-09-19T02:38:43;100818.66;;;20.51;64.00
79453;BME280;68899;52.116;5.404;2023-09-19T02:41:10;100825.66;;;20.52;63.87
79453;BME280;68899;52.116;5.404;2023-09-19T02:43:36;100830.19;;;20.51;63.62
79453;BME280;68899;52.116;5.404;2023-09-19T02:46:03;100828.50;;;20.50;63.66
79453;BME280;68899;52.116;5.404;2023-09-19T02:48:29;100825.84;;;20.50;63.79
79453;BME280;68899;52.116;5.404;2023-09-19T02:50:58;100822.28;;;20.50;63.99
79453;BME280;68899;52.116;5.404;2023-09-19T02:53:24;100823.28;;;20.49;63.84
79453;BME280;68899;52.116;5.404;2023-09-19T02:55:51;100829.47;;;20.49;63.84
79453;BME280;68899;52.116;5.404;2023-09-19T02:58:18;100818.13;;;20.47;63.69
79453;BME280;68899;52.116;5.404;2023-09-19T03:00:45;100834.16;;;20.47;63.78
79453;BME280;68899;52.116;5.404;2023-09-19T03:03:16;100827.97;;;20.47;64.12
79453;BME280;68899;52.116;5.404;2023-09-19T03:05:43;100832.47;;;20.46;63.90
79453;BME280;68899;52.116;5.404;2023-09-19T03:08:14;100828.97;;;20.46;63.51
79453;BME280;68899;52.116;5.404;2023-09-19T03:10:46;100818.28;;;20.46;64.08
79453;BME280;68899;52.116;5.404;2023-09-19T03:13:14;100816.44;;;20.46;63.73
79453;BME280;68899;52.116;5.404;2023-09-19T03:15:42;100817.44;;;20.45;63.57
79453;BME280;68899;52.116;5.404;2023-09-19T03:18:14;100818.44;;;20.44;63.79
79453;BME280;68899;52.116;5.404;2023-09-19T03:20:40;100825.63;;;20.44;63.69
79453;BME280;68899;52.116;5.404;2023-09-19T03:23:07;100829.25;;;20.43;63.79
79453;BME280;68899;52.116;5.404;2023-09-19T03:25:34;100821.25;;;20.43;63.51
79453;BME280;68899;52.116;5.404;2023-09-19T03:28:03;100828.44;;;20.42;63.55
79453;BME280;68899;52.116;5.404;2023-09-19T03:30:32;100824.06;;;20.41;63.74
79453;BME280;68899;52.116;5.404;2023-09-19T03:32:59;100827.59;;;20.42;63.36
79453;BME280;68899;52.116;5.404;2023-09-19T03:35:27;100830.41;;;20.40;63.53
79453;BME280;68899;52.116;5.404;2023-09-19T03:37:53;100836.59;;;20.41;63.44
79453;BME280;68899;52.116;5.404;2023-09-19T03:40:20;100828.72;;;20.39;63.35
79453;BME280;68899;52.116;5.404;2023-09-19T03:42:48;100826.06;;;20.39;63.90
79453;BME280;68899;52.116;5.404;2023-09-19T03:45:15;100820.72;;;20.39;63.58
79453;BME280;68899;52.116;5.404;2023-09-19T03:47:42;100807.50;;;20.38;63.48
79453;BME280;68899;52.116;5.404;2023-09-19T03:50:09;100810.19;;;20.38;63.51
79453;BME280;68899;52.116;5.404;2023-09-19T03:52:38;100812.84;;;20.38;63.59
79453;BME280;68899;52.116;5.404;2023-09-19T03:55:04;100813.03;;;20.36;63.66
79453;BME280;68899;52.116;5.404;2023-09-19T03:57:31;100813.84;;;20.37;63.67
79453;BME280;68899;52.116;5.404;2023-09-19T03:59:58;100821.19;;;20.35;63.35
79453;BME280;68899;52.116;5.404;2023-09-19T04:02:24;100823.88;;;20.35;63.50
79453;BME280;68899;52.116;5.404;2023-09-19T04:04:51;100837.22;;;20.35;63.53
79453;BME280;68899;52.116;5.404;2023-09-19T04:07:18;100836.41;;;20.34;63.51
79453;BME280;68899;52.116;5.404;2023-09-19T04:09:46;100836.41;;;20.34;63.56
79453;BME280;68899;52.116;5.404;2023-09-19T04:12:12;100844.53;;;20.32;63.65
79453;BME280;68899;52.116;5.404;2023-09-19T04:14:39;100851.72;;;20.32;63.50
79453;BME280;68899;52.116;5.404;2023-09-19T04:17:05;100855.22;;;20.32;63.64
79453;BME280;68899;52.116;5.404;2023-09-19T04:19:36;100855.41;;;20.31;63.31
79453;BME280;68899;52.116;5.404;2023-09-19T04:22:03;100857.22;;;20.30;63.21
79453;BME280;68899;52.116;5.404;2023-09-19T04:24:30;100864.41;;;20.30;63.61
79453;BME280;68899;52.116;5.404;2023-09-19T04:26:58;100866.25;;;20.29;63.27
79453;BME280;68899;52.116;5.404;2023-09-19T04:29:25;100866.41;;;20.28;63.28
79453;BME280;68899;52.116;5.404;2023-09-19T04:31:53;100872.59;;;20.28;63.31
79453;BME280;68899;52.116;5.404;2023-09-19T04:34:20;100885.09;;;20.28;63.47
79453;BME280;68899;52.116;5.404;2023-09-19T04:36:46;100872.75;;;20.27;63.25
79453;BME280;68899;52.116;5.404;2023-09-19T04:39:13;100890.59;;;20.26;63.28
79453;BME280;68899;52.116;5.404;2023-09-19T04:41:39;100888.94;;;20.25;63.16
79453;BME280;68899;52.116;5.404;2023-09-19T04:44:08;100899.63;;;20.25;63.36
79453;BME280;68899;52.116;5.404;2023-09-19T04:46:34;100898.78;;;20.25;63.07
79453;BME280;68899;52.116;5.404;2023-09-19T04:49:01;100890.78;;;20.25;63.42
79453;BME280;68899;52.116;5.404;2023-09-19T04:51:28;100899.75;;;20.24;63.18
79453;BME280;68899;52.116;5.404;2023-09-19T04:54:00;100890.91;;;20.23;63.10
79453;BME280;68899;52.116;5.404;2023-09-19T04:56:27;100887.41;;;20.23;63.20
79453;BME280;68899;52.116;5.404;2023-09-19T04:58:55;100881.22;;;20.22;63.07
79453;BME280;68899;52.116;5.404;2023-09-19T05:01:21;100876.88;;;20.21;62.87
79453;BME280;68899;52.116;5.404;2023-09-19T05:03:49;100884.88;;;20.21;63.19
79453;BME280;68899;52.116;5.404;2023-09-19T05:06:19;100890.22;;;20.21;62.96
79453;BME280;68899;52.116;5.404;2023-09-19T05:08:50;100892.91;;;20.21;62.91
79453;BME280;68899;52.116;5.404;2023-09-19T05:11:20;100892.91;;;20.21;63.09
79453;BME280;68899;52.116;5.404;2023-09-19T05:13:50;100886.88;;;20.19;63.16
79453;BME280;68899;52.116;5.404;2023-09-19T05:16:19;100897.56;;;20.19;62.97
79453;BME280;68899;52.116;5.404;2023-09-19T05:18:45;100896.72;;;20.19;62.92
79453;BME280;68899;52.116;5.404;2023-09-19T05:21:12;100895.06;;;20.18;63.11
79453;BME280;68899;52.116;5.404;2023-09-19T05:23:39;100892.38;;;20.18;63.16
79453;BME280;68899;52.116;5.404;2023-09-19T05:26:06;100893.22;;;20.18;63.17
79453;BME280;68899;52.116;5.404;2023-09-19T05:28:32;100901.22;;;20.18;63.03
79453;BME280;68899;52.116;5.404;2023-09-19T05:31:01;100899.56;;;20.17;62.71
79453;BME280;68899;52.116;5.404;2023-09-19T05:33:29;100903.06;;;20.18;62.85
79453;BME280;68899;52.116;5.404;2023-09-19T05:35:57;100888.88;;;20.17;63.08
79453;BME280;68899;52.116;5.404;2023-09-19T05:38:23;100892.53;;;20.16;62.78
79453;BME280;68899;52.116;5.404;2023-09-19T05:40:53;100887.19;;;20.16;63.04
79453;BME280;68899;52.116;5.404;2023-09-19T05:43:20;100884.66;;;20.15;63.01
79453;BME280;68899;52.116;5.404;2023-09-19T05:45:47;100894.38;;;20.16;62.98
79453;BME280;68899;52.116;5.404;2023-09-19T05:48:14;100886.50;;;20.14;62.73
79453;BME280;68899;52.116;5.404;2023-09-19T05:50:43;100898.84;;;20.15;62.58
79453;BME280;68899;52.116;5.404;2023-09-19T05:53:09;100902.38;;;20.16;62.93
79453;BME280;68899;52.116;5.404;2023-09-19T05:55:39;100900.69;;;20.15;62.79
79453;BME280;68899;52.116;5.404;2023-09-19T05:58:06;100904.19;;;20.15;62.90
79453;BME280;68899;52.116;5.404;2023-09-19T06:00:33;100903.53;;;20.13;63.09
79453;BME280;68899;52.116;5.404;2023-09-19T06:03:02;100908.88;;;20.13;62.44
79453;BME280;68899;52.116;5.404;2023-09-19T06:05:29;100901.69;;;20.14;62.58
79453;BME280;68899;52.116;5.404;2023-09-19T06:07:58;100910.53;;;20.14;62.88
79453;BME280;68899;52.116;5.404;2023-09-19T06:10:27;100919.53;;;20.13;62.76
79453;BME280;68899;52.116;5.404;2023-09-19T06:12:54;100920.38;;;20.14;62.92
79453;BME280;68899;52.116;5.404;2023-09-19T06:15:21;100931.78;;;20.16;62.39
79453;BME280;68899;52.116;5.404;2023-09-19T06:17:54;100929.22;;;20.14;62.69
79453;BME280;68899;52.116;5.404;2023-09-19T06:20:25;100922.22;;;20.13;62.47
79453;BME280;68899;52.116;5.404;2023-09-19T06:22:53;100937.25;;;20.14;62.66
79453;BME280;68899;52.116;5.404;2023-09-19T06:25:20;100934.56;;;20.14;62.31
79453;BME280;68899;52.116;5.404;2023-09-19T06:27:52;100938.91;;;20.15;62.43
79453;BME280;68899;52.116;5.404;2023-09-19T06:30:21;100936.25;;;20.15;62.43
79453;BME280;68899;52.116;5.404;2023-09-19T06:32:49;100929.22;;;20.14;62.68
79453;BME280;68899;52.116;5.404;2023-09-19T06:35:21;100926.56;;;20.14;62.64
79453;BME280;68899;52.116;5.404;2023-09-19T06:37:47;100923.88;;;20.14;62.69
79453;BME280;68899;52.116;5.404;2023-09-19T06:40:14;100923.75;;;20.16;62.46
79453;BME280;68899;52.116;5.404;2023-09-19T06:42:46;100922.06;;;20.15;62.67
79453;BME280;68899;52.116;5.404;2023-09-19T06:45:13;100922.88;;;20.15;62.36
79453;BME280;68899;52.116;5.404;2023-09-19T06:47:45;100923.75;;;20.16;62.69
79453;BME280;68899;52.116;5.404;2023-09-19T06:50:12;100921.94;;;20.16;62.71
79453;BME280;68899;52.116;5.404;2023-09-19T06:52:46;100922.75;;;20.17;62.40
79453;BME280;68899;52.116;5.404;2023-09-19T06:55:17;100919.25;;;20.16;62.60
79453;BME280;68899;52.116;5.404;2023-09-19T06:57:47;100918.41;;;20.16;62.70
79453;BME280;68899;52.116;5.404;2023-09-19T07:00:14;100921.94;;;20.16;62.69
79453;BME280;68899;52.116;5.404;2023-09-19T07:03:07;100922.75;;;20.17;62.26
79453;BME280;68899;52.116;5.404;2023-09-19T07:05:40;100914.75;;;20.17;62.58
79453;BME280;68899;52.116;5.404;2023-09-19T07:08:08;100911.09;;;20.18;62.43
79453;BME280;68899;52.116;5.404;2023-09-19T07:10:40;100915.44;;;20.19;62.52
79453;BME280;68899;52.116;5.404;2023-09-19T07:13:09;100916.25;;;20.19;62.61
79453;BME280;68899;52.116;5.404;2023-09-19T07:15:38;100918.09;;;20.19;62.53
79453;BME280;68899;52.116;5.404;2023-09-19T07:18:08;100926.94;;;20.19;62.67
79453;BME280;68899;52.116;5.404;2023-09-19T07:20:38;100930.28;;;20.21;62.47
79453;BME280;68899;52.116;5.404;2023-09-19T07:23:05;100930.28;;;20.21;62.63
79453;BME280;68899;52.116;5.404;2023-09-19T07:25:32;100940.97;;;20.21;62.29
79453;BME280;68899;52.116;5.404;2023-09-19T07:27:59;100945.50;;;20.21;62.87
79453;BME280;68899;52.116;5.404;2023-09-19T07:30:26;100948.16;;;20.21;62.58
79453;BME280;68899;52.116;5.404;2023-09-19T07:32:53;100933.13;;;20.20;62.82
79453;BME280;68899;52.116;5.404;2023-09-19T07:35:20;100947.31;;;20.20;62.60
79453;BME280;68899;52.116;5.404;2023-09-19T07:37:47;100956.00;;;20.22;62.99
79453;BME280;68899;52.116;5.404;2023-09-19T07:40:18;100958.69;;;20.22;62.59
79453;BME280;68899;52.116;5.404;2023-09-19T07:42:47;100950.66;;;20.22;62.30
79453;BME280;68899;52.116;5.404;2023-09-19T07:45:13;100951.50;;;20.23;62.42
79453;BME280;68899;52.116;5.404;2023-09-19T07:47:47;100960.22;;;20.25;62.24
79453;BME280;68899;52.116;5.404;2023-09-19T07:50:18;100956.56;;;20.26;62.32
79453;BME280;68899;52.116;5.404;2023-09-19T07:52:49;100957.41;;;20.26;62.53
79453;BME280;68899;52.116;5.404;2023-09-19T07:55:20;100952.72;;;20.28;62.50
79453;BME280;68899;52.116;5.404;2023-09-19T07:57:50;100968.75;;;20.28;62.07
79453;BME280;68899;52.116;5.404;2023-09-19T08:00:16;100948.22;;;20.29;61.84
79453;BME280;68899;52.116;5.404;2023-09-19T08:02:43;100954.41;;;20.29;62.11
79453;BME280;68899;52.116;5.404;2023-09-19T08:05:12;100956.09;;;20.30;62.03
79453;BME280;68899;52.116;5.404;2023-09-19T08:07:44;100948.91;;;20.31;62.46
79453;BME280;68899;52.116;5.404;2023-09-19T08:10:15;100955.91;;;20.32;61.93
79453;BME280;68899;52.116;5.404;2023-09-19T08:12:44;100966.47;;;20.33;61.99
79453;BME280;68899;52.116;5.404;2023-09-19T08:15:18;100955.78;;;20.33;61.85
79453;BME280;68899;52.116;5.404;2023-09-19T08:17:48;100960.13;;;20.35;62.27
79453;BME280;68899;52.116;5.404;2023-09-19T08:20:15;100958.31;;;20.35;61.98
79453;BME280;68899;52.116;5.404;2023-09-19T08:22:51;100964.31;;;20.37;62.10
79453;BME280;68899;52.116;5.404;2023-09-19T08:25:19;100941.13;;;20.38;61.86
79453;BME280;68899;52.116;5.404;2023-09-19T08:27:46;100950.81;;;20.39;62.22
79453;BME280;68899;52.116;5.404;2023-09-19T08:30:16;100946.13;;;20.41;61.70
79453;BME280;68899;52.116;5.404;2023-09-19T08:32:44;100949.53;;;20.43;61.83
79453;BME280;68899;52.116;5.404;2023-09-19T08:35:12;100949.53;;;20.43;61.75
79453;BME280;68899;52.116;5.404;2023-09-19T08:37:38;100955.72;;;20.43;62.04
79453;BME280;68899;52.116;5.404;2023-09-19T08:40:05;100950.06;;;20.46;61.38
79453;BME280;68899;52.116;5.404;2023-09-19T08:42:51;100950.56;;;20.50;61.42
79453;BME280;68899;52.116;5.404;2023-09-19T08:45:20;100946.22;;;20.49;61.45
79453;BME280;68899;52.116;5.404;2023-09-19T08:48:27;100942.44;;;20.51;61.50
79453;BME280;68899;52.116;5.404;2023-09-19T08:51:07;100950.97;;;20.55;61.44
79453;BME280;68899;52.116;5.404;2023-09-19T08:53:51;100939.28;;;20.56;61.49
79453;BME280;68899;52.116;5.404;2023-09-19T08:56:18;100938.09;;;20.58;60.85
79453;BME280;68899;52.116;5.404;2023-09-19T08:58:55;100945.84;;;20.62;61.23
79453;BME280;68899;52.116;5.404;2023-09-19T09:01:28;100946.34;;;20.65;60.56
79453;BME280;68899;52.116;5.404;2023-09-19T09:03:56;100946.88;;;20.69;61.21
79453;BME280;68899;52.116;5.404;2023-09-19T09:06:24;100933.03;;;20.73;61.01
79453;BME280;68899;52.116;5.404;2023-09-19T09:08:51;100943.28;;;20.78;61.07
79453;BME280;68899;52.116;5.404;2023-09-19T09:11:19;100947.78;;;20.77;60.95
79453;BME280;68899;52.116;5.404;2023-09-19T09:13:46;100945.09;;;20.77;60.71
79453;BME280;68899;52.116;5.404;2023-09-19T09:16:14;100939.75;;;20.77;61.09
79453;BME280;68899;52.116;5.404;2023-09-19T09:18:44;100946.78;;;20.78;61.30
79453;BME280;68899;52.116;5.404;2023-09-19T09:21:12;100939.59;;;20.79;61.13
79453;BME280;68899;52.116;5.404;2023-09-19T09:23:40;100940.44;;;20.79;61.02
79453;BME280;68899;52.116;5.404;2023-09-19T09:26:08;100939.44;;;20.80;60.30
79453;BME280;68899;52.116;5.404;2023-09-19T09:28:35;100931.41;;;20.80;60.77
79453;BME280;68899;52.116;5.404;2023-09-19T09:31:23;100938.25;;;20.83;61.13
79453;BME280;68899;52.116;5.404;2023-09-19T09:33:55;100933.91;;;20.82;60.84
79453;BME280;68899;52.116;5.404;2023-09-19T09:36:40;100929.41;;;20.82;61.07
79453;BME280;68899;52.116;5.404;2023-09-19T09:39:08;100933.13;;;20.89;60.76
79453;BME280;68899;52.116;5.404;2023-09-19T09:41:44;100918.75;;;20.91;60.70
79453;BME280;68899;52.116;5.404;2023-09-19T09:44:15;100917.59;;;20.93;60.87
79453;BME280;68899;52.116;5.404;2023-09-19T09:46:43;100919.97;;;20.96;60.81
79453;BME280;68899;52.116;5.404;2023-09-19T09:49:23;100912.59;;;20.98;60.67
79453;BME280;68899;52.116;5.404;2023-09-19T09:52:06;100913.81;;;21.04;60.53
79453;BME280;68899;52.116;5.404;2023-09-19T09:55:03;100907.13;;;21.08;60.60
79453;BME280;68899;52.116;5.404;2023-09-19T09:57:34;100912.31;;;21.09;60.28
79453;BME280;68899;52.116;5.404;2023-09-19T10:00:01;100917.38;;;21.12;60.28
79453;BME280;68899;52.116;5.404;2023-09-19T10:02:40;100914.81;;;21.11;60.79
79453;BME280;68899;52.116;5.404;2023-09-19T10:05:15;100915.81;;;21.10;60.25
79453;BME280;68899;52.116;5.404;2023-09-19T10:08:10;100915.81;;;21.10;60.46
79453;BME280;68899;52.116;5.404;2023-09-19T10:10:45;100923.22;;;21.16;60.08
79453;BME280;68899;52.116;5.404;2023-09-19T10:13:21;100927.91;;;21.14;60.29
79453;BME280;68899;52.116;5.404;2023-09-19T10:15:51;100923.72;;;21.11;60.24
79453;BME280;68899;52.116;5.404;2023-09-19T10:18:22;100922.00;;;21.10;60.64
79453;BME280;68899;52.116;5.404;2023-09-19T10:20:49;100922.34;;;21.07;60.53
79453;BME280;68899;52.116;5.404;2023-09-19T10:23:18;100905.63;;;21.05;60.58
79453;BME280;68899;52.116;5.404;2023-09-19T10:25:52;100918.50;;;21.10;60.35
79453;BME280;68899;52.116;5.404;2023-09-19T10:28:21;100905.31;;;21.16;60.18
79453;BME280;68899;52.116;5.404;2023-09-19T10:30:52;100913.88;;;21.20;60.32
79453;BME280;68899;52.116;5.404;2023-09-19T10:33:22;100900.50;;;21.20;60.07
79453;BME280;68899;52.116;5.404;2023-09-19T10:35:50;100900.84;;;21.25;60.23
79453;BME280;68899;52.116;5.404;2023-09-19T10:38:18;100892.88;;;21.33;59.70
79453;BME280;68899;52.116;5.404;2023-09-19T10:40:50;100877.69;;;21.42;59.97
79453;BME280;68899;52.116;5.404;2023-09-19T10:43:19;100892.25;;;21.48;59.34
79453;BME280;68899;52.116;5.404;2023-09-19T10:45:49;100886.19;;;21.45;59.41
79453;BME280;68899;52.116;5.404;2023-09-19T10:48:16;100881.72;;;21.46;59.24
79453;BME280;68899;52.116;5.404;2023-09-19T10:53:51;100880.34;;;21.42;59.57
79453;BME280;68899;52.116;5.404;2023-09-19T10:56:23;100868.81;;;21.41;59.79
79453;BME280;68899;52.116;5.404;2023-09-19T10:58:51;100858.78;;;21.43;59.15
79453;BME280;68899;52.116;5.404;2023-09-19T11:01:19;100869.00;;;21.48;59.35
79453;BME280;68899;52.116;5.404;2023-09-19T11:03:46;100862.97;;;21.46;59.35
79453;BME280;68899;52.116;5.404;2023-09-19T11:06:18;100874.53;;;21.47;59.37
79453;BME280;68899;52.116;5.404;2023-09-19T11:09:12;100857.78;;;21.53;59.59
79453;BME280;68899;52.116;5.404;2023-09-19T11:11:49;100856.28;;;21.50;59.21
79453;BME280;68899;52.116;5.404;2023-09-19T11:30:33;100844.91;;;21.56;59.14
79453;BME280;68899;52.116;5.404;2023-09-19T11:33:22;100852.44;;;21.53;59.32
79453;BME280;68899;52.116;5.404;2023-09-19T11:36:09;100844.75;;;21.50;59.37
79453;BME280;68899;52.116;5.404;2023-09-19T11:46:27;100833.53;;;21.38;59.44
79453;BME280;68899;52.116;5.404;2023-09-19T11:48:55;100841.69;;;21.36;59.46
79453;BME280;68899;52.116;5.404;2023-09-19T11:51:40;100839.00;;;21.36;59.75
79453;BME280;68899;52.116;5.404;2023-09-19T11:54:13;100836.53;;;21.43;59.61
79453;BME280;68899;52.116;5.404;2023-09-19T11:56:52;100824.97;;;21.42;59.27
79453;BME280;68899;52.116;5.404;2023-09-19T11:59:21;100826.16;;;21.40;59.70
79453;BME280;68899;52.116;5.404;2023-09-19T12:01:56;100824.66;;;21.37;59.61
79453;BME280;68899;52.116;5.404;2023-09-19T12:04:38;100829.31;;;21.35;59.59
79453;BME280;68899;52.116;5.404;2023-09-19T12:07:09;100853.75;;;21.32;59.77
79453;BME280;68899;52.116;5.404;2023-09-19T12:14:50;100849.69;;;21.28;60.08
79453;BME280;68899;52.116;5.404;2023-09-19T12:17:17;100851.53;;;21.28;59.88
79453;BME280;68899;52.116;5.404;2023-09-19T12:19:51;100842.81;;;21.26;59.85
79453;BME280;68899;52.116;5.404;2023-09-19T12:22:18;100845.50;;;21.26;60.03
79453;BME280;68899;52.116;5.404;2023-09-19T12:24:47;100841.16;;;21.25;60.22
79453;BME280;68899;52.116;5.404;2023-09-19T12:27:14;100835.97;;;21.23;59.70
79453;BME280;68899;52.116;5.404;2023-09-19T12:29:46;100843.31;;;21.21;60.18
79453;BME280;68899;52.116;5.404;2023-09-19T12:32:15;100847.97;;;21.19;59.80
79453;BME280;68899;52.116;5.404;2023-09-19T12:34:51;100850.81;;;21.17;60.00
79453;BME280;68899;52.116;5.404;2023-09-19T12:37:20;100834.09;;;21.15;60.25
79453;BME280;68899;52.116;5.404;2023-09-19T12:40:07;100839.63;;;21.14;60.24
79453;BME280;68899;52.116;5.404;2023-09-19T12:42:49;100834.44;;;21.12;59.97
79453;BME280;68899;52.116;5.404;2023-09-19T12:45:16;100843.47;;;21.11;60.13
79453;BME280;68899;52.116;5.404;2023-09-19T12:48:25;100849.78;;;21.10;60.42
79453;BME280;68899;52.116;5.404;2023-09-19T12:51:08;100851.78;;;21.08;60.20
79453;BME280;68899;52.116;5.404;2023-09-19T12:53:44;100854.81;;;21.05;59.99
79453;BME280;68899;52.116;5.404;2023-09-19T12:56:14;100847.63;;;21.06;60.40
79453;BME280;68899;52.116;5.404;2023-09-19T13:01:21;100841.72;;;21.02;60.35
79453;BME280;68899;52.116;5.404;2023-09-19T13:04:11;100844.41;;;21.02;60.48
79453;BME280;68899;52.116;5.404;2023-09-19T13:06:49;100853.31;;;21.03;60.52
79453;BME280;68899;52.116;5.404;2023-09-19T13:09:17;100839.94;;;21.03;60.55
79453;BME280;68899;52.116;5.404;2023-09-19T13:11:44;100847.09;;;21.02;60.71
79453;BME280;68899;52.116;5.404;2023-09-19T13:14:22;100840.06;;;21.01;60.56
79453;BME280;68899;52.116;5.404;2023-09-19T13:17:06;100837.38;;;21.01;60.39
79453;BME280;68899;52.116;5.404;2023-09-19T13:19:44;100844.75;;;20.99;60.26
79453;BME280;68899;52.116;5.404;2023-09-19T13:22:43;100851.25;;;20.97;60.51
79453;BME280;68899;52.116;5.404;2023-09-19T13:25:17;100855.78;;;20.96;61.10
79453;BME280;68899;52.116;5.404;2023-09-19T13:27:49;100855.94;;;20.95;60.73
79453;BME280;68899;52.116;5.404;2023-09-19T13:30:18;100860.47;;;20.94;60.90
79453;BME280;68899;52.116;5.404;2023-09-19T13:32:45;100854.25;;;20.94;60.53
79453;BME280;68899;52.116;5.404;2023-09-19T13:35:14;100846.22;;;20.94;60.80
79453;BME280;68899;52.116;5.404;2023-09-19T13:37:42;100849.75;;;20.94;60.72
79453;BME280;68899;52.116;5.404;2023-09-19T13:40:11;100839.06;;;20.94;60.92
79453;BME280;68899;52.116;5.404;2023-09-19T13:42:38;100843.41;;;20.95;60.71
79453;BME280;68899;52.116;5.404;2023-09-19T13:45:05;100839.72;;;20.96;60.89
79453;BME280;68899;52.116;5.404;2023-09-19T13:47:32;100837.06;;;20.96;60.77
79453;BME280;68899;52.116;5.404;2023-09-19T13:50:00;100829.03;;;20.96;60.67
79453;BME280;68899;52.116;5.404;2023-09-19T13:52:27;100823.00;;;20.94;60.77
79453;BME280;68899;52.116;5.404;2023-09-19T13:54:55;100828.38;;;20.94;60.81